Graz, Austria
Current Conditions -  °F | °C
As of 10:50 AM on Thursday 23 Oct 2014 (Local Time) from LOWG Reporting Station
Broken Clouds Broken Clouds  
Wind Chill: 46°   Ceiling: 5700
Heat Index: 46°   Visibility: 6mi
Dew Point: 41°   Wind: 3mph
Humidity: 81%   Direction: 170°S
Pressure: 29.77"   Gusts: NA
Location:  47.08°N, 15.42°E
Report Text: LOWG 230850Z 17003KT 9999 FEW040 BKN057 BKN090 08/05 Q1008 NOSIG
Loading
Personal Weather Stations






























Interactive Weather Map
Tropical Storm Tracking
New forecast layout! Learn more

10-Day Weather Forecast

Advertisements
Track Severe Weather on mobile